Time;durP1;ratioP1;P1;durP2;ratioP2;P2;SDS_P1;SDS_P2;PMS_P1;PMS_P2;Temp;Humidity;BMP_temperature;BMP_pressure;BME280_temperature;BME280_humidity;BME280_pressure;Samples;Min_cycle;Max_cycle;Signal;HPM_P1;HPM_P2
2021/07/13 00:01:04;;;;;;;10.13;7.25;;;;;;;21.08;79.06;99414.91;3470573;28;20080;-42
2021/07/13 00:02:45;;;;;;;8.60;6.72;;;;;;;21.04;79.08;99413.25;3470565;28;20042;-42
2021/07/13 00:04:27;;;;;;;8.48;6.85;;;;;;;21.02;79.38;99415.09;3469905;28;20128;-42
2021/07/13 00:06:09;;;;;;;11.85;7.32;;;;;;;20.98;79.11;99417.91;3472904;28;20590;-42
2021/07/13 00:07:51;;;;;;;8.32;6.85;;;;;;;20.95;79.55;99418.84;3482519;28;20084;-42
2021/07/13 00:09:32;;;;;;;9.00;6.78;;;;;;;20.90;79.65;99418.13;3473626;28;20077;-43
2021/07/13 00:11:14;;;;;;;8.07;6.97;;;;;;;20.87;79.80;99420.88;3469566;28;20366;-43
2021/07/13 00:12:58;;;;;;;11.98;6.72;;;;;;;20.86;80.06;99427.06;3478384;28;20084;-42
2021/07/13 00:14:39;;;;;;;7.90;6.78;;;;;;;20.81;79.72;99434.25;3480459;28;20073;-42
2021/07/13 00:16:20;;;;;;;7.82;6.68;;;;;;;20.78;80.34;99434.34;3468607;28;20136;-42
2021/07/13 00:18:03;;;;;;;8.82;6.90;;;;;;;20.74;80.71;99443.28;3472279;28;20049;-42
2021/07/13 00:19:44;;;;;;;7.90;6.18;;;;;;;20.69;80.85;99444.25;3468953;28;20081;-42
2021/07/13 00:21:26;;;;;;;9.55;7.00;;;;;;;20.63;80.38;99449.72;3472164;28;20049;-42
2021/07/13 00:23:07;;;;;;;10.55;7.25;;;;;;;20.61;80.85;99448.03;3469267;28;20573;-43
2021/07/13 00:24:48;;;;;;;10.10;7.65;;;;;;;20.57;81.09;99446.41;3471327;28;20080;-42
2021/07/13 00:26:30;;;;;;;10.02;7.43;;;;;;;20.55;81.24;99440.31;3470409;28;20056;-42
2021/07/13 00:28:12;;;;;;;9.90;6.63;;;;;;;20.51;81.48;99442.19;3481157;28;20088;-42
2021/07/13 00:29:53;;;;;;;9.60;7.07;;;;;;;20.52;81.92;99444.78;3477944;28;20145;-42
2021/07/13 00:31:34;;;;;;;8.45;7.18;;;;;;;20.53;81.77;99440.34;3482578;28;20064;-42
2021/07/13 00:33:16;;;;;;;10.15;7.53;;;;;;;20.56;81.51;99442.06;3474529;28;20553;-42
2021/07/13 00:34:57;;;;;;;9.52;8.02;;;;;;;20.57;81.28;99438.50;3469103;28;20081;-42
2021/07/13 00:36:38;;;;;;;10.15;7.78;;;;;;;20.56;81.29;99442.06;3470223;28;20515;-42
2021/07/13 00:38:20;;;;;;;9.90;7.40;;;;;;;20.54;81.23;99450.00;3470247;28;20111;-42
2021/07/13 00:40:01;;;;;;;10.52;7.88;;;;;;;20.52;80.96;99449.19;3480811;28;20084;-42
2021/07/13 00:41:43;;;;;;;12.30;8.02;;;;;;;20.48;81.38;99444.91;3477683;28;20073;-43
2021/07/13 00:43:25;;;;;;;11.07;8.18;;;;;;;20.44;81.27;99448.56;3482259;28;20132;-43
2021/07/13 00:45:07;;;;;;;10.77;7.45;;;;;;;20.39;81.41;99453.09;3480005;28;20164;-42
2021/07/13 00:46:49;;;;;;;14.07;7.32;;;;;;;20.37;82.09;99445.22;3481854;28;20064;-42
2021/07/13 00:48:31;;;;;;;8.65;7.20;;;;;;;20.35;82.21;99446.19;3471292;28;20041;-42
2021/07/13 00:50:14;;;;;;;10.45;7.57;;;;;;;20.32;82.19;99445.38;3470074;28;20085;-42
2021/07/13 00:51:55;;;;;;;11.20;7.47;;;;;;;20.30;82.18;99444.53;3481906;28;20126;-43
2021/07/13 00:53:41;;;;;;;9.27;7.53;;;;;;;20.27;82.34;99438.50;3471990;28;20176;-42
2021/07/13 00:55:23;;;;;;;9.02;7.75;;;;;;;20.23;82.50;99444.78;3482290;28;20076;-42
2021/07/13 00:57:07;;;;;;;8.68;7.13;;;;;;;20.20;82.78;99448.38;3477748;28;20122;-42
2021/07/13 00:58:50;;;;;;;10.32;7.15;;;;;;;20.18;82.57;99449.31;3481119;28;20052;-42
2021/07/13 01:00:32;;;;;;;10.07;7.32;;;;;;;20.16;82.92;99446.72;3470118;28;20515;-43
2021/07/13 01:02:16;;;;;;;9.32;7.35;;;;;;;20.14;82.88;99451.19;3470665;28;20081;-43
2021/07/13 01:03:59;;;;;;;10.05;8.05;;;;;;;20.12;82.69;99450.38;3468400;28;20091;-42
2021/07/13 01:05:43;;;;;;;11.98;7.82;;;;;;;20.11;83.12;99452.16;3473317;28;20041;-42
2021/07/13 01:07:34;;;;;;;10.82;7.03;;;;;;;20.11;83.01;99448.63;3482203;28;20290;-42
2021/07/13 01:09:25;;;;;;;14.15;7.40;;;;;;;20.09;82.99;99446.03;3472150;28;20056;-42
2021/07/13 01:11:16;;;;;;;10.30;7.10;;;;;;;20.04;82.73;99450.59;3469944;28;20072;-42
2021/07/13 01:13:03;;;;;;;8.20;6.82;;;;;;;20.03;82.28;99445.38;3484459;28;20085;-42
2021/07/13 01:14:51;;;;;;;8.55;6.55;;;;;;;20.00;80.24;99448.09;3482081;28;20041;-43
2021/07/13 01:16:42;;;;;;;8.98;7.18;;;;;;;20.02;82.10;99446.28;3483984;28;20073;-43
2021/07/13 01:18:28;;;;;;;8.50;7.15;;;;;;;20.04;82.45;99453.22;3470834;28;20143;-42
2021/07/13 01:20:52;;;;;;;9.25;6.80;;;;;;;20.02;81.38;99457.66;3472694;28;20100;-42
2021/07/13 01:22:38;;;;;;;9.20;6.88;;;;;;;20.03;82.06;99453.28;3472989;28;20083;-42
2021/07/13 01:24:46;;;;;;;8.80;6.85;;;;;;;20.03;82.01;99448.00;3470755;28;20568;-42
2021/07/13 01:26:35;;;;;;;8.98;7.13;;;;;;;20.01;82.72;99452.47;3479275;28;20083;-43
2021/07/13 01:28:19;;;;;;;9.93;7.30;;;;;;;20.01;83.05;99444.56;3481331;28;20087;-42
2021/07/13 01:30:05;;;;;;;10.20;6.90;;;;;;;20.00;81.47;99445.44;3470377;28;20552;-42
2021/07/13 01:31:49;;;;;;;12.10;7.22;;;;;;;19.97;82.25;99437.63;3475198;28;20076;-42
2021/07/13 01:33:32;;;;;;;7.85;6.85;;;;;;;19.94;82.91;99438.59;3484684;28;20103;-42
2021/07/13 01:35:18;;;;;;;9.40;7.23;;;;;;;19.92;82.95;99438.63;3479888;28;20085;-42
2021/07/13 01:37:03;;;;;;;8.52;6.93;;;;;;;19.90;83.10;99432.56;3482214;28;20373;-43
2021/07/13 01:38:46;;;;;;;12.38;7.28;;;;;;;19.89;83.11;99437.88;3481634;28;20515;-43
2021/07/13 01:40:30;;;;;;;10.05;6.50;;;;;;;19.86;83.32;99438.78;3480636;28;20079;-42
2021/07/13 01:42:12;;;;;;;10.00;7.00;;;;;;;19.85;83.58;99437.09;3470340;28;20087;-42
2021/07/13 01:43:56;;;;;;;7.50;6.50;;;;;;;19.81;83.59;99440.66;3477032;28;20095;-43
2021/07/13 01:45:39;;;;;;;8.20;6.88;;;;;;;19.80;83.81;99444.22;3483818;28;20048;-43
2021/07/13 01:47:23;;;;;;;10.77;7.30;;;;;;;19.78;83.82;99446.03;3479857;28;20048;-43
2021/07/13 01:49:05;;;;;;;9.55;7.28;;;;;;;19.73;84.30;99446.16;3480740;28;20077;-43
2021/07/13 01:50:50;;;;;;;8.65;7.18;;;;;;;19.72;84.03;99444.44;3470882;28;20058;-42
2021/07/13 01:52:33;;;;;;;9.95;7.68;;;;;;;19.72;84.07;99441.81;3475410;28;20083;-43
2021/07/13 01:54:15;;;;;;;;;;;;;;;19.73;83.83;99445.28;3484593;28;20084;-42
2021/07/13 01:55:58;;;;;;;10.90;7.20;;;;;;;19.72;83.94;99448.81;3473848;28;19960;-43
2021/07/13 01:57:40;;;;;;;14.75;8.15;;;;;;;19.69;84.05;99447.16;3469770;28;20135;-42
2021/07/13 01:59:24;;;;;;;10.57;7.53;;;;;;;19.70;84.09;99448.84;3471791;28;20554;-43
2021/07/13 02:01:11;;;;;;;14.00;7.82;;;;;;;19.67;84.32;99448.97;3474129;28;20076;-42
2021/07/13 02:02:54;;;;;;;15.95;7.05;;;;;;;19.66;84.20;99447.22;3470260;28;20076;-43
2021/07/13 02:04:38;;;;;;;14.70;8.60;;;;;;;19.64;84.63;99448.19;3476232;28;20134;-43
2021/07/13 02:06:23;;;;;;;17.20;7.47;;;;;;;19.58;84.69;99441.28;3483861;28;20044;-43
2021/07/13 02:08:06;;;;;;;14.27;8.40;;;;;;;19.56;84.56;99444.00;3472052;28;20458;-43
2021/07/13 02:09:48;;;;;;;15.55;7.80;;;;;;;19.52;84.84;99444.94;3472586;28;20081;-42
2021/07/13 02:11:29;;;;;;;12.23;7.47;;;;;;;19.49;85.49;99455.56;3471044;28;20081;-43
2021/07/13 02:13:11;;;;;;;10.38;7.35;;;;;;;19.45;85.53;99450.44;3473435;28;20072;-42
2021/07/13 02:14:53;;;;;;;12.75;7.78;;;;;;;19.45;85.80;99453.06;3470341;28;20103;-43
2021/07/13 02:16:35;;;;;;;15.43;7.82;;;;;;;19.45;85.74;99451.28;3473461;28;20526;-42
2021/07/13 02:18:16;;;;;;;10.82;7.25;;;;;;;19.46;85.92;99457.41;3470549;28;20053;-43
2021/07/13 02:19:59;;;;;;;27.90;8.93;;;;;;;19.45;85.93;99451.28;3479552;28;20132;-44
2021/07/13 02:21:41;;;;;;;13.63;7.70;;;;;;;19.45;85.69;99451.28;3481176;28;20072;-42
2021/07/13 02:23:22;;;;;;;9.88;7.20;;;;;;;19.45;85.74;99459.19;3482019;28;20143;-42
2021/07/13 02:25:06;;;;;;;16.63;8.32;;;;;;;19.46;85.73;99458.28;3479280;28;20140;-42
2021/07/13 02:26:50;;;;;;;14.27;8.02;;;;;;;19.48;85.69;99460.88;3483578;28;20462;-43
2021/07/13 02:28:36;;;;;;;11.65;7.80;;;;;;;19.49;85.76;99462.59;3473895;28;20518;-43
2021/07/13 02:30:19;;;;;;;10.15;7.53;;;;;;;19.50;86.46;99469.59;3471158;28;20077;-43
2021/07/13 02:32:03;;;;;;;19.67;7.90;;;;;;;19.51;86.41;99458.16;3479919;28;20087;-43
2021/07/13 02:33:49;;;;;;;13.38;7.32;;;;;;;19.52;86.44;99459.88;3479147;28;21218;-42
2021/07/13 02:35:42;;;;;;;11.73;7.00;;;;;;;19.55;86.16;99458.03;3483768;28;20194;-43
2021/07/13 02:37:25;;;;;;;14.57;7.60;;;;;;;19.56;86.35;99457.16;3475385;28;20546;-43
2021/07/13 02:39:07;;;;;;;;;;;;;;;19.60;86.24;99459.66;3471462;28;20081;-42
2021/07/13 02:40:51;;;;;;;17.02;8.20;;;;;;;19.62;86.29;99455.22;3479881;28;20412;-42
2021/07/13 02:42:33;;;;;;;13.07;7.72;;;;;;;19.66;86.43;99460.38;3479757;28;20471;-42
2021/07/13 02:44:15;;;;;;;18.13;8.00;;;;;;;19.68;86.40;99460.34;3483233;28;20358;-42
2021/07/13 02:45:58;;;;;;;11.80;7.72;;;;;;;19.70;86.05;99456.75;3478907;28;20087;-43
2021/07/13 02:47:42;;;;;;;14.20;8.75;;;;;;;19.71;86.43;99458.50;3483340;28;20052;-43
2021/07/13 02:49:27;;;;;;;9.65;7.57;;;;;;;19.74;85.70;99462.78;3479042;28;20587;-42
2021/07/13 02:51:10;;;;;;;13.13;7.68;;;;;;;19.81;85.65;99461.72;3481568;28;20136;-43
2021/07/13 02:52:54;;;;;;;12.82;7.57;;;;;;;19.86;85.87;99457.22;3473631;28;20081;-43
2021/07/13 02:54:37;;;;;;;13.27;7.75;;;;;;;19.93;85.90;99461.41;3472807;28;20140;-43
2021/07/13 02:56:19;;;;;;;10.43;7.88;;;;;;;19.97;85.63;99464.84;3483429;28;20587;-43
2021/07/13 02:58:03;;;;;;;12.60;7.55;;;;;;;20.04;85.91;99476.94;3478970;28;20049;-43
2021/07/13 02:59:47;;;;;;;9.30;7.00;;;;;;;20.08;85.41;99469.81;3483287;28;20079;-43
2021/07/13 03:01:30;;;;;;;10.60;7.30;;;;;;;20.11;85.56;99474.97;3472527;28;20078;-43
2021/07/13 03:03:12;;;;;;;10.18;6.78;;;;;;;20.11;85.73;99472.34;3471820;28;20418;-43
2021/07/13 03:04:54;;;;;;;9.73;7.10;;;;;;;20.11;85.44;99469.69;3470331;28;20067;-42
2021/07/13 03:06:37;;;;;;;12.50;7.43;;;;;;;20.16;85.13;99474.84;3470746;28;20138;-43
2021/07/13 03:08:20;;;;;;;11.47;7.60;;;;;;;20.20;84.92;99469.47;3469454;28;20045;-42
2021/07/13 03:10:03;;;;;;;14.75;7.55;;;;;;;20.27;84.85;99467.47;3472972;28;20306;-43
2021/07/13 03:11:45;;;;;;;10.88;6.70;;;;;;;20.30;84.29;99476.16;3468899;28;20056;-43
2021/07/13 03:13:27;;;;;;;9.68;7.00;;;;;;;20.37;84.39;99478.63;3479633;28;20521;-42
2021/07/13 03:15:09;;;;;;;9.88;7.25;;;;;;;20.43;83.35;99481.06;3481010;28;20593;-43
2021/07/13 03:16:51;;;;;;;13.73;7.32;;;;;;;20.52;84.35;99483.44;3469641;28;20535;-42
2021/07/13 03:18:33;;;;;;;10.95;7.22;;;;;;;20.59;83.87;99481.47;3473598;28;20080;-43
2021/07/13 03:20:14;;;;;;;9.45;6.93;;;;;;;20.64;82.66;99483.09;3483255;28;20521;-43
2021/07/13 03:21:57;;;;;;;9.45;7.03;;;;;;;20.72;82.47;99490.75;3473422;28;20045;-43
2021/07/13 03:23:40;;;;;;;7.63;6.00;;;;;;;20.80;82.21;99485.25;3470116;28;20077;-43
2021/07/13 03:25:26;;;;;;;10.80;6.70;;;;;;;20.85;81.40;99481.59;3480056;28;20083;-43
2021/07/13 03:27:09;;;;;;;8.27;6.57;;;;;;;20.92;81.71;99484.00;3478751;28;20072;-43
2021/07/13 03:28:50;;;;;;;9.07;6.28;;;;;;;20.94;80.92;99482.19;3482752;28;20480;-43
2021/07/13 03:30:33;;;;;;;6.90;5.65;;;;;;;20.98;80.22;99482.06;3476929;28;20219;-42
2021/07/13 03:32:17;;;;;;;7.70;6.03;;;;;;;21.01;79.59;99478.44;3469371;28;20061;-42
2021/07/13 03:34:01;;;;;;;9.52;6.60;;;;;;;21.05;80.75;99470.38;3477617;28;20404;-43
2021/07/13 03:35:43;;;;;;;8.73;5.85;;;;;;;21.08;80.34;99469.41;3480924;28;20414;-42
2021/07/13 03:37:25;;;;;;;9.93;6.30;;;;;;;21.10;80.96;99474.63;3481413;28;20137;-43
2021/07/13 03:39:07;;;;;;;12.75;6.40;;;;;;;21.11;80.02;99466.69;3479465;28;20048;-42
2021/07/13 03:40:50;;;;;;;9.85;6.45;;;;;;;21.16;81.03;99463.91;3469258;28;20072;-43
2021/07/13 03:42:32;;;;;;;11.25;7.05;;;;;;;21.18;80.96;99470.84;3475608;28;20135;-42
2021/07/13 03:44:14;;;;;;;11.43;7.35;;;;;;;21.21;80.74;99467.25;3482416;28;20339;-42
2021/07/13 03:45:57;;;;;;;11.73;6.97;;;;;;;21.24;80.50;99465.38;3478781;28;20144;-43
2021/07/13 03:47:39;;;;;;;8.20;6.67;;;;;;;21.29;80.62;99462.56;3480669;28;20053;-43
2021/07/13 03:49:24;;;;;;;10.07;8.20;;;;;;;21.35;80.33;99467.66;3480907;28;20504;-43
2021/07/13 03:51:06;;;;;;;11.55;8.77;;;;;;;21.42;80.58;99463.03;3478266;28;20048;-43
2021/07/13 03:52:47;;;;;;;10.45;8.23;;;;;;;21.48;80.01;99461.97;3467586;28;20140;-43
2021/07/13 03:54:29;;;;;;;12.15;8.20;;;;;;;21.52;79.96;99464.41;3476302;28;20413;-43
2021/07/13 03:56:10;;;;;;;9.88;6.93;;;;;;;21.57;79.33;99453.72;3482469;28;20135;-43
2021/07/13 03:57:54;;;;;;;8.85;6.70;;;;;;;21.60;78.53;99451.81;3478408;28;20147;-43
2021/07/13 03:59:35;;;;;;;10.98;7.10;;;;;;;21.66;78.79;99453.41;3480503;28;20055;-42
2021/07/13 04:01:17;;;;;;;10.48;6.57;;;;;;;21.73;78.41;99456.72;3468769;28;20136;-42
2021/07/13 04:02:59;;;;;;;8.88;7.10;;;;;;;21.81;79.13;99452.88;3472466;28;20048;-43
2021/07/13 04:04:40;;;;;;;7.63;6.72;;;;;;;21.90;78.83;99453.47;3468868;28;20049;-44
2021/07/13 04:06:22;;;;;;;8.50;6.15;;;;;;;21.99;78.60;99458.41;3469952;28;20551;-43
2021/07/13 04:08:04;;;;;;;9.48;6.40;;;;;;;22.09;78.81;99464.19;3469663;28;20140;-43
2021/07/13 04:09:45;;;;;;;10.63;6.53;;;;;;;22.18;78.47;99459.44;3478619;28;20503;-43
2021/07/13 04:11:27;;;;;;;7.50;6.28;;;;;;;22.30;77.57;99462.53;3479732;28;20573;-43
2021/07/13 04:13:08;;;;;;;9.45;6.45;;;;;;;22.44;77.28;99462.88;3468534;28;20423;-43
2021/07/13 04:14:49;;;;;;;8.63;5.85;;;;;;;22.56;77.40;99466.88;3472114;28;20140;-43
2021/07/13 04:16:31;;;;;;;8.43;6.47;;;;;;;22.70;75.94;99469.81;3482694;28;20048;-44
2021/07/13 04:18:13;;;;;;;11.38;6.78;;;;;;;22.88;77.14;99465.63;3473556;28;20084;-43
2021/07/13 04:19:54;;;;;;;12.52;6.90;;;;;;;23.08;75.86;99467.44;3468407;28;20079;-43
2021/07/13 04:21:36;;;;;;;20.73;6.10;;;;;;;23.28;75.16;99466.63;3478245;28;20144;-43
2021/07/13 04:23:18;;;;;;;23.70;7.20;;;;;;;23.43;74.02;99464.25;3480129;28;20131;-43
2021/07/13 04:24:59;;;;;;;30.23;7.32;;;;;;;23.57;73.12;99466.31;3469683;28;20061;-43
2021/07/13 04:26:41;;;;;;;28.67;8.35;;;;;;;23.74;72.58;99471.75;3472071;28;20131;-43
2021/07/13 04:28:22;;;;;;;20.05;7.38;;;;;;;23.91;71.17;99474.53;3482369;28;20498;-43
2021/07/13 04:30:05;;;;;;;17.35;5.82;;;;;;;24.07;69.23;99472.09;3477866;28;20471;-43
2021/07/13 04:31:47;;;;;;;9.77;5.40;;;;;;;24.24;67.05;99468.69;3482038;28;20512;-43
2021/07/13 04:33:30;;;;;;;8.57;5.50;;;;;;;24.39;66.16;99472.41;3478457;28;20049;-43
2021/07/13 04:35:11;;;;;;;8.98;4.65;;;;;;;24.53;66.16;99481.50;3479688;28;20083;-43
2021/07/13 04:36:52;;;;;;;11.23;5.20;;;;;;;24.67;65.78;99481.72;3481081;28;20045;-42
2021/07/13 04:38:34;;;;;;;17.88;5.45;;;;;;;24.83;65.20;99480.06;3477909;28;20170;-43
2021/07/13 04:40:15;;;;;;;7.88;4.63;;;;;;;25.00;64.12;99478.38;3482308;28;20145;-43
2021/07/13 04:41:56;;;;;;;7.15;4.80;;;;;;;25.15;63.61;99474.13;3474384;28;20058;-43
2021/07/13 04:43:38;;;;;;;9.88;4.72;;;;;;;25.25;63.41;99472.75;3469024;28;20073;-43
2021/07/13 04:45:19;;;;;;;8.77;4.55;;;;;;;25.33;63.67;99475.00;3478684;28;20143;-43
2021/07/13 04:47:00;;;;;;;7.15;4.80;;;;;;;25.37;62.86;99471.25;3481822;28;20495;-43
2021/07/13 04:48:42;;;;;;;7.82;4.57;;;;;;;25.38;61.71;99465.88;3482737;28;20079;-43
2021/07/13 04:50:24;;;;;;;7.28;4.15;;;;;;;25.40;62.51;99474.59;3480524;28;20088;-44
2021/07/13 04:52:06;;;;;;;6.35;4.05;;;;;;;25.41;62.39;99470.19;3484578;28;20557;-43
2021/07/13 04:53:48;;;;;;;5.95;4.32;;;;;;;25.40;61.07;99474.59;3476297;28;20136;-43
2021/07/13 04:55:29;;;;;;;5.55;4.15;;;;;;;25.42;61.18;99471.88;3484425;28;20076;-43
2021/07/13 04:57:10;;;;;;;6.72;4.38;;;;;;;25.47;61.32;99464.53;3480278;28;20537;-43
2021/07/13 04:58:51;;;;;;;8.05;4.22;;;;;;;25.55;60.62;99469.50;3480844;28;20072;-43
2021/07/13 05:00:33;;;;;;;7.55;4.10;;;;;;;25.69;61.25;99460.81;3482679;28;20432;-43
2021/07/13 05:02:14;;;;;;;9.75;4.20;;;;;;;25.81;59.97;99461.97;3480171;28;20153;-43
2021/07/13 05:03:57;;;;;;;10.35;4.45;;;;;;;25.89;58.99;99460.63;3484729;28;20139;-43
2021/07/13 05:05:38;;;;;;;7.72;4.22;;;;;;;26.01;59.19;99468.88;3480230;28;20048;-43
2021/07/13 05:07:22;;;;;;;7.93;4.38;;;;;;;26.08;58.96;99457.84;3484185;28;20143;-43
2021/07/13 05:09:03;;;;;;;;;;;;;;;26.20;58.82;99460.78;3473968;28;20096;-43
2021/07/13 05:10:44;;;;;;;9.70;4.53;;;;;;;26.21;57.27;99462.50;3472510;28;20010;-44
2021/07/13 05:12:26;;;;;;;7.70;4.93;;;;;;;26.21;57.36;99452.72;3482842;28;20132;-43
2021/07/13 05:14:07;;;;;;;10.75;4.57;;;;;;;26.24;57.84;99455.22;3479917;28;20085;-43
2021/07/13 05:15:48;;;;;;;6.55;4.90;;;;;;;26.27;57.87;99447.13;3484288;28;20084;-43
2021/07/13 05:17:30;;;;;;;6.35;4.50;;;;;;;26.30;57.70;99451.41;3477174;28;20073;-43
2021/07/13 05:19:14;;;;;;;5.80;4.88;;;;;;;26.38;57.67;99450.97;3470779;28;20081;-43
2021/07/13 05:20:58;;;;;;;12.30;4.95;;;;;;;26.44;57.99;99447.97;3472563;28;20623;-43
2021/07/13 05:22:40;;;;;;;9.95;4.95;;;;;;;26.52;58.36;99459.06;3473081;28;20421;-43
2021/07/13 05:24:21;;;;;;;7.90;4.55;;;;;;;26.57;57.47;99454.31;3470605;28;20144;-43
2021/07/13 05:26:02;;;;;;;12.57;5.00;;;;;;;26.65;58.35;99462.75;3473175;28;20072;-43
2021/07/13 05:27:44;;;;;;;13.93;5.22;;;;;;;26.76;57.63;99453.31;3470411;28;20053;-43
2021/07/13 05:29:25;;;;;;;9.68;4.68;;;;;;;26.89;58.34;99459.66;3477748;28;20136;-43
2021/07/13 05:31:07;;;;;;;10.88;4.70;;;;;;;26.99;58.35;99455.53;3483882;28;20148;-43
2021/07/13 05:32:50;;;;;;;10.25;5.22;;;;;;;27.07;57.33;99453.28;3480052;28;20545;-43
2021/07/13 05:34:32;;;;;;;9.52;5.50;;;;;;;27.16;55.24;99451.03;3481244;28;20438;-43
2021/07/13 05:36:14;;;;;;;9.65;5.38;;;;;;;27.20;56.42;99449.91;3482010;28;20092;-44
2021/07/13 05:37:55;;;;;;;7.68;4.90;;;;;;;27.25;55.08;99453.16;3478473;28;20445;-44
2021/07/13 05:39:37;;;;;;;13.35;4.65;;;;;;;27.31;54.70;99458.13;3470287;28;20547;-43
2021/07/13 05:41:19;;;;;;;8.10;4.60;;;;;;;27.34;54.29;99454.44;3473965;28;20072;-44
2021/07/13 05:43:00;;;;;;;11.52;4.85;;;;;;;27.40;54.32;99452.25;3471977;28;20046;-43
2021/07/13 05:44:42;;;;;;;4.88;4.07;;;;;;;27.42;54.12;99455.69;3482368;28;20084;-43
2021/07/13 05:46:23;;;;;;;10.68;4.90;;;;;;;27.51;53.83;99456.06;3482349;28;20103;-44
2021/07/13 05:48:05;;;;;;;10.07;4.72;;;;;;;27.61;54.43;99463.47;3470202;28;20049;-44
2021/07/13 05:49:48;;;;;;;12.43;4.10;;;;;;;27.74;54.08;99460.06;3473892;28;20049;-44
2021/07/13 05:51:29;;;;;;;11.18;4.45;;;;;;;27.82;52.70;99468.44;3470419;28;20092;-43
2021/07/13 05:53:11;;;;;;;8.38;4.60;;;;;;;27.92;52.58;99458.09;3476929;28;20045;-44
2021/07/13 05:54:52;;;;;;;17.92;5.20;;;;;;;28.03;51.74;99469.78;3482316;28;20207;-43
2021/07/13 05:56:34;;;;;;;7.30;4.43;;;;;;;28.10;51.00;99472.09;3481321;28;20053;-43
2021/07/13 05:58:19;;;;;;;11.73;4.60;;;;;;;28.14;50.96;99466.47;3479905;28;20100;-44
2021/07/13 06:00:02;;;;;;;6.90;3.88;;;;;;;28.21;51.53;99473.16;3470356;28;20145;-44
2021/07/13 06:01:43;;;;;;;4.68;4.20;;;;;;;28.25;50.90;99465.81;3473634;28;20087;-44
2021/07/13 06:03:25;;;;;;;5.63;3.92;;;;;;;28.28;49.50;99473.63;3470153;28;20054;-44
2021/07/13 06:05:08;;;;;;;5.15;4.20;;;;;;;28.31;50.10;99470.78;3473538;28;20052;-44
2021/07/13 06:06:49;;;;;;;8.32;4.60;;;;;;;28.34;49.92;99470.59;3471660;28;20422;-44
2021/07/13 06:08:30;;;;;;;6.45;4.70;;;;;;;28.33;49.57;99468.84;3481820;28;20049;-44
2021/07/13 06:10:12;;;;;;;10.18;4.38;;;;;;;28.35;50.57;99466.09;3479872;28;20514;-44
2021/07/13 06:11:54;;;;;;;13.50;4.78;;;;;;;28.38;49.30;99463.25;3470242;28;20095;-43
2021/07/13 06:13:36;;;;;;;17.90;5.05;;;;;;;28.42;50.06;99460.28;3476500;28;20468;-44
2021/07/13 06:15:19;;;;;;;9.23;4.60;;;;;;;28.53;49.99;99458.72;3483641;28;20052;-44
2021/07/13 06:17:00;;;;;;;6.57;4.60;;;;;;;28.63;51.12;99459.84;3479734;28;20080;-44
2021/07/13 06:18:41;;;;;;;7.22;4.43;;;;;;;28.68;49.76;99465.75;3481287;28;20532;-44
2021/07/13 06:20:23;;;;;;;8.77;4.38;;;;;;;28.76;49.44;99458.13;3481838;28;20087;-44
2021/07/13 06:22:05;;;;;;;10.27;4.38;;;;;;;28.86;50.79;99463.69;3479432;28;20085;-44
2021/07/13 06:23:47;;;;;;;6.25;4.60;;;;;;;28.93;49.57;99467.69;3483298;28;20443;-44
2021/07/13 06:25:28;;;;;;;9.52;4.63;;;;;;;29.01;49.65;99466.34;3476392;28;20076;-44
2021/07/13 06:27:09;;;;;;;6.10;4.82;;;;;;;29.04;49.25;99460.81;3469530;28;20526;-44
2021/07/13 06:28:51;;;;;;;8.63;5.03;;;;;;;29.08;48.82;99464.97;3473456;28;20135;-44
2021/07/13 06:30:34;;;;;;;8.00;5.20;;;;;;;29.12;49.45;99462.00;3471613;28;20080;-44
2021/07/13 06:32:16;;;;;;;7.55;5.22;;;;;;;29.16;49.42;99460.00;3481658;28;20080;-44
2021/07/13 06:33:57;;;;;;;7.03;4.57;;;;;;;29.21;49.70;99460.53;3479488;28;20137;-44
2021/07/13 06:35:41;;;;;;;7.53;5.50;;;;;;;29.27;49.19;99468.16;3483774;28;20110;-45
2021/07/13 06:37:22;;;;;;;8.35;5.45;;;;;;;29.32;49.87;99459.81;3479315;28;20237;-44
2021/07/13 06:39:04;;;;;;;9.48;5.43;;;;;;;29.42;49.83;99470.75;3482902;28;20048;-45
2021/07/13 06:40:45;;;;;;;129.82;14.60;;;;;;;29.45;48.89;99466.06;3472636;28;20140;-45
2021/07/13 06:42:27;;;;;;;13.05;5.30;;;;;;;29.50;48.79;99463.94;3471322;28;20648;-44
2021/07/13 06:44:10;;;;;;;5.93;4.80;;;;;;;29.54;48.51;99456.59;3481737;28;20080;-44
2021/07/13 06:45:51;;;;;;;;;;;;;;;29.64;48.55;99457.63;3478705;28;20056;-44
2021/07/13 06:47:33;;;;;;;13.63;6.10;;;;;;;29.70;49.20;99451.03;3469728;28;19932;-44
2021/07/13 06:49:14;;;;;;;9.60;5.65;;;;;;;29.80;48.59;99454.78;3476766;28;20110;-44
2021/07/13 06:50:56;;;;;;;8.90;5.18;;;;;;;29.92;47.93;99455.72;3483105;28;20053;-44
2021/07/13 06:52:38;;;;;;;13.27;5.68;;;;;;;30.05;47.43;99461.06;3473721;28;20064;-44
2021/07/13 06:54:19;;;;;;;11.20;5.28;;;;;;;30.24;48.33;99463.34;3471261;28;20143;-44
2021/07/13 06:56:00;;;;;;;8.85;5.60;;;;;;;30.34;47.22;99458.19;3481768;28;20110;-45
2021/07/13 06:57:41;;;;;;;7.97;4.88;;;;;;;30.34;46.06;99464.38;3476741;28;20611;-44
2021/07/13 06:59:23;;;;;;;6.57;5.10;;;;;;;30.39;47.40;99458.72;3469764;28;20057;-46
2021/07/13 07:01:04;;;;;;;8.63;4.70;;;;;;;30.41;46.75;99457.63;3475949;28;20100;-44
2021/07/13 07:02:45;;;;;;;11.48;4.70;;;;;;;30.46;44.86;99468.00;3483013;28;20052;-45
2021/07/13 07:04:27;;;;;;;6.50;5.03;;;;;;;30.48;45.35;99461.56;3471713;28;20498;-45
2021/07/13 07:06:09;;;;;;;6.53;5.07;;;;;;;30.54;45.77;99459.41;3469832;28;20056;-44
2021/07/13 07:07:51;;;;;;;5.82;5.07;;;;;;;30.65;46.09;99455.00;3470326;28;20084;-44
2021/07/13 07:09:33;;;;;;;5.83;5.17;;;;;;;30.71;44.98;99459.03;3471281;28;20839;-45
2021/07/13 07:11:14;;;;;;;7.25;5.22;;;;;;;30.78;45.37;99462.16;3483180;28;20501;-44
2021/07/13 07:12:55;;;;;;;7.60;5.68;;;;;;;30.89;44.94;99456.84;3475422;28;20155;-45
2021/07/13 07:14:37;;;;;;;8.57;5.60;;;;;;;30.87;44.87;99464.16;3469424;28;20518;-45
2021/07/13 07:16:18;;;;;;;8.07;5.95;;;;;;;30.84;44.55;99461.69;3479349;28;20332;-44
2021/07/13 07:18:00;;;;;;;8.55;5.53;;;;;;;30.96;45.98;99466.16;3481088;28;20056;-45
2021/07/13 07:19:41;;;;;;;8.45;5.60;;;;;;;31.02;44.83;99463.03;3480819;28;20107;-45
2021/07/13 07:21:23;;;;;;;11.00;5.90;;;;;;;30.98;45.22;99468.72;3478680;28;20049;-45
2021/07/13 07:23:04;;;;;;;7.30;5.57;;;;;;;30.88;45.56;99457.84;3483022;28;20148;-45
2021/07/13 07:24:46;;;;;;;6.55;5.65;;;;;;;30.79;45.34;99469.22;3475813;28;20466;-45
2021/07/13 07:26:27;;;;;;;6.97;5.55;;;;;;;30.73;46.13;99461.63;3469100;28;20084;-44
2021/07/13 07:28:11;;;;;;;8.30;5.30;;;;;;;30.69;45.99;99460.97;3472968;28;20077;-45
2021/07/13 07:29:53;;;;;;;9.43;5.38;;;;;;;30.76;45.16;99464.94;3470955;28;20099;-45
2021/07/13 07:31:34;;;;;;;9.38;5.68;;;;;;;30.87;46.39;99464.16;3480876;28;20076;-44
2021/07/13 07:33:16;;;;;;;9.65;5.53;;;;;;;30.97;44.76;99459.84;3478327;28;20163;-45
2021/07/13 07:34:58;;;;;;;7.95;5.75;;;;;;;31.06;44.19;99471.69;3482884;28;20536;-45
2021/07/13 07:36:41;;;;;;;7.47;5.38;;;;;;;31.09;44.49;99467.91;3478112;28;20076;-46
2021/07/13 07:38:22;;;;;;;8.40;5.78;;;;;;;31.02;43.89;99463.03;3482662;28;20080;-45
2021/07/13 07:40:06;;;;;;;10.90;5.70;;;;;;;30.88;44.85;99460.53;3472428;28;20151;-45
2021/07/13 07:41:48;;;;;;;9.00;6.05;;;;;;;30.71;44.31;99460.88;3471494;28;20061;-46
2021/07/13 07:43:30;;;;;;;8.10;5.67;;;;;;;30.48;45.75;99458.88;3469950;28;20493;-45
2021/07/13 07:45:12;;;;;;;8.52;5.90;;;;;;;30.37;46.18;99456.16;3472392;28;20310;-45
2021/07/13 07:46:53;;;;;;;9.85;5.68;;;;;;;30.28;46.19;99460.34;3483025;28;20056;-43
2021/07/13 07:48:35;;;;;;;8.02;5.90;;;;;;;30.23;46.18;99464.31;3478138;28;20502;-43
2021/07/13 07:50:18;;;;;;;11.77;6.15;;;;;;;30.12;46.17;99452.50;3482645;28;20083;-44
2021/07/13 07:52:00;;;;;;;14.40;5.35;;;;;;;30.16;47.19;99452.34;3480797;28;20460;-43
2021/07/13 07:53:41;;;;;;;8.88;5.90;;;;;;;30.24;46.61;99453.50;3470182;28;20069;-43
2021/07/13 07:55:25;;;;;;;7.78;6.45;;;;;;;30.38;46.90;99452.50;3481400;28;20076;-43
2021/07/13 07:57:06;;;;;;;10.57;5.70;;;;;;;30.39;47.42;99448.84;3478172;28;20418;-43
2021/07/13 07:58:47;;;;;;;10.50;5.88;;;;;;;30.53;46.86;99455.91;3482534;28;20111;-43
2021/07/13 08:00:28;;;;;;;7.47;5.88;;;;;;;30.67;45.90;99449.53;3474946;28;20203;-43
2021/07/13 08:02:10;;;;;;;6.90;5.80;;;;;;;30.86;45.37;99455.28;3469451;28;20053;-43